Terminal Aerodrome Forecast
Issued by NWS

Current Version | Previous Version | Text Only | Print | Product List | Glossary On
Versions: 1 2 3 4 5 6 7 8 9 10 11 12 13
000
FTUS45 KVEF 281120
TAFHND
TAF
KHND 281120Z 2812/2912 18010KT P6SM SKC
     FM281400 VRB05KT P6SM SKC
     FM282000 16008KT P6SM FEW120
     FM290200 19010KT P6SM FEW120 SCT250=

USA.gov is the U.S. government's official web portal to all federal, state and local government web resources and services.